Time;durP1;ratioP1;P1;durP2;ratioP2;P2;SDS_P1;SDS_P2;PMS_P1;PMS_P2;Temp;Humidity;BMP_temperature;BMP_pressure;BME280_temperature;BME280_humidity;BME280_pressure;Samples;Min_cycle;Max_cycle;Signal;HPM_P1;HPM_P2
2022/04/25 00:02:29;;;;;;;11.93;10.67;;;10.40;99.90;;;;;;5114491;28;20199;-52
2022/04/25 00:04:57;;;;;;;11.67;10.47;;;10.40;99.90;;;;;;5114463;28;20712;-52
2022/04/25 00:07:25;;;;;;;11.90;10.63;;;10.40;99.90;;;;;;5115278;28;20571;-52
2022/04/25 00:09:54;;;;;;;12.10;10.57;;;10.30;99.90;;;;;;5115088;28;20204;-52
2022/04/25 00:12:22;;;;;;;13.87;10.37;;;10.30;99.90;;;;;;5101457;28;20204;-52
2022/04/25 00:14:50;;;;;;;12.43;10.50;;;10.20;99.90;;;;;;5094663;28;20273;-52
2022/04/25 00:17:18;;;;;;;11.90;10.03;;;10.20;99.90;;;;;;5094938;28;20696;-52
2022/04/25 00:19:48;;;;;;;11.07;9.63;;;10.20;99.90;;;;;;5094890;28;20204;-52
2022/04/25 00:22:16;;;;;;;11.23;10.03;;;10.20;99.90;;;;;;5092880;28;20230;-52
2022/04/25 00:24:47;;;;;;;11.30;9.73;;;10.30;99.90;;;;;;5094110;28;20232;-52
2022/04/25 00:27:16;;;;;;;12.37;9.57;;;10.20;99.90;;;;;;5094830;28;20191;-52
2022/04/25 00:29:44;;;;;;;14.37;9.67;;;10.10;99.90;;;;;;5096960;28;20708;-52
2022/04/25 00:32:12;;;;;;;10.57;9.30;;;10.10;99.90;;;;;;5114021;28;20279;-55
2022/04/25 00:34:40;;;;;;;10.83;9.40;;;10.20;99.90;;;;;;5114280;28;20215;-51
2022/04/25 00:37:10;;;;;;;10.37;9.10;;;10.10;99.90;;;;;;5114912;28;20639;-52
2022/04/25 00:39:38;;;;;;;9.47;8.57;;;10.10;99.90;;;;;;5114700;28;20202;-52
2022/04/25 00:42:06;;;;;;;9.90;9.00;;;10.10;99.90;;;;;;5114358;28;20364;-52
2022/04/25 00:44:34;;;;;;;9.80;8.80;;;10.00;99.90;;;;;;5114560;28;20231;-52
2022/04/25 00:47:04;;;;;;;9.93;8.90;;;10.00;99.90;;;;;;5114334;28;20200;-52
2022/04/25 00:49:32;;;;;;;10.07;8.70;;;10.00;99.90;;;;;;5114240;28;20248;-52
2022/04/25 00:52:00;;;;;;;10.07;8.77;;;10.00;99.90;;;;;;5114217;28;20211;-52
2022/04/25 00:54:31;;;;;;;10.43;9.43;;;9.90;99.90;;;;;;5113852;28;20220;-52
2022/04/25 00:57:01;;;;;;;10.47;9.23;;;9.90;99.90;;;;;;5114528;28;20247;-52
2022/04/25 00:59:29;;;;;;;10.00;8.83;;;9.90;99.90;;;;;;5114118;28;20733;-52
2022/04/25 01:01:58;;;;;;;12.37;10.13;;;9.90;99.90;;;;;;5113424;28;20675;-58
2022/04/25 01:04:27;;;;;;;10.77;9.67;;;9.90;99.90;;;;;;5113892;28;20225;-52
2022/04/25 01:06:56;;;;;;;10.60;9.50;;;9.90;99.90;;;;;;5118575;27;20203;-51
2022/04/25 01:09:25;;;;;;;11.10;9.37;;;9.80;99.90;;;;;;5124644;27;20210;-52
2022/04/25 01:11:55;;;;;;;10.63;9.53;;;9.80;99.90;;;;;;5112393;28;20252;-52
2022/04/25 01:14:23;;;;;;;10.90;9.70;;;9.90;99.90;;;;;;5113539;27;20879;-52
2022/04/25 01:16:51;;;;;;;12.17;10.03;;;9.80;99.90;;;;;;5112796;28;20570;-52
2022/04/25 01:19:20;;;;;;;10.93;9.40;;;9.80;99.90;;;;;;5112608;28;20225;-52
2022/04/25 01:21:54;;;;;;;11.90;10.57;;;9.80;99.90;;;;;;5112792;28;20714;-52
2022/04/25 01:27:20;;;;;;;11.30;9.60;;;9.80;99.90;;;;;;5113342;28;20245;-52
2022/04/25 01:29:51;;;;;;;12.87;10.13;;;9.80;99.90;;;;;;5113050;28;20597;-52
2022/04/25 01:32:20;;;;;;;10.10;9.10;;;9.80;99.90;;;;;;5112226;27;20241;-52
2022/04/25 01:34:49;;;;;;;9.80;8.77;;;9.80;99.90;;;;;;5112567;28;20227;-53
2022/04/25 01:37:18;;;;;;;10.63;9.53;;;9.70;99.90;;;;;;5120417;27;20236;-52
2022/04/25 01:39:49;;;;;;;9.33;8.40;;;9.80;99.90;;;;;;5133805;27;20203;-52
2022/04/25 01:42:18;;;;;;;11.00;8.63;;;9.80;99.90;;;;;;5133650;27;20207;-52
2022/04/25 01:44:46;;;;;;;10.37;9.17;;;9.70;99.90;;;;;;5131869;27;20622;-51
2022/04/25 01:47:15;;;;;;;10.80;8.10;;;9.70;99.90;;;;;;5113503;28;20202;-51
2022/04/25 01:49:43;;;;;;;9.47;8.47;;;9.70;99.90;;;;;;5092852;28;20215;-51
2022/04/25 01:52:18;;;;;;;9.43;8.43;;;9.70;99.90;;;;;;5092418;28;20249;-52
2022/04/25 01:54:48;;;;;;;8.40;7.57;;;9.70;99.90;;;;;;5092722;28;20277;-52
2022/04/25 01:57:16;;;;;;;8.50;7.53;;;9.70;99.90;;;;;;5093039;28;20274;-52
2022/04/25 01:59:45;;;;;;;8.20;7.23;;;9.70;99.90;;;;;;5092590;28;20265;-52
2022/04/25 02:02:13;;;;;;;11.17;7.57;;;9.70;99.90;;;;;;5102418;27;20200;-51
2022/04/25 02:04:43;;;;;;;10.07;7.63;;;9.70;99.90;;;;;;5112828;28;20271;-50
2022/04/25 02:07:12;;;;;;;9.83;6.70;;;9.60;99.90;;;;;;5112938;28;20718;-51
2022/04/25 02:09:40;;;;;;;8.00;6.77;;;9.60;99.90;;;;;;5113010;28;20253;-52
2022/04/25 02:12:10;;;;;;;7.77;6.77;;;9.60;99.90;;;;;;5112177;28;20199;-51
2022/04/25 02:14:41;;;;;;;7.40;6.23;;;9.50;99.90;;;;;;5113204;28;20280;-51
2022/04/25 02:17:10;;;;;;;7.40;6.07;;;9.60;99.90;;;;;;5112368;28;20219;-50
2022/04/25 02:19:39;;;;;;;7.90;6.50;;;9.60;99.90;;;;;;5112988;28;20204;-51
2022/04/25 02:22:09;;;;;;;8.83;6.50;;;9.50;99.90;;;;;;5111034;28;20316;-51
2022/04/25 02:24:38;;;;;;;7.80;6.47;;;9.60;99.90;;;;;;5111672;28;20234;-51
2022/04/25 02:27:07;;;;;;;7.77;6.97;;;9.50;99.90;;;;;;5112926;28;20203;-51
2022/04/25 02:29:38;;;;;;;6.80;6.17;;;9.50;99.90;;;;;;5112374;28;20203;-52
2022/04/25 02:32:09;;;;;;;6.93;6.23;;;9.60;99.90;;;;;;5111922;28;20304;-51
2022/04/25 02:34:37;;;;;;;7.53;6.03;;;9.60;99.90;;;;;;5111901;28;20227;-51
2022/04/25 02:37:06;;;;;;;9.20;6.80;;;9.60;99.90;;;;;;5112103;28;20700;-52
2022/04/25 02:39:34;;;;;;;7.90;7.00;;;9.60;99.90;;;;;;5112498;28;20203;-51
2022/04/25 02:42:03;;;;;;;7.60;6.80;;;9.60;99.90;;;;;;5112104;28;20214;-51
2022/04/25 02:44:31;;;;;;;9.23;7.33;;;9.60;99.90;;;;;;5111631;28;20231;-51
2022/04/25 02:47:01;;;;;;;7.67;6.33;;;9.60;99.90;;;;;;5091657;28;20204;-52
2022/04/25 02:49:29;;;;;;;7.93;7.13;;;9.60;99.90;;;;;;5092174;28;20209;-51
2022/04/25 02:51:57;;;;;;;8.00;7.13;;;9.50;99.90;;;;;;5090972;28;20212;-52
2022/04/25 02:54:25;;;;;;;10.33;7.43;;;9.50;99.90;;;;;;5091675;28;20273;-52
2022/04/25 02:56:55;;;;;;;8.60;7.73;;;9.50;99.90;;;;;;5091838;28;20308;-52
2022/04/25 02:59:23;;;;;;;9.23;7.73;;;9.40;99.90;;;;;;5091537;28;20209;-52
2022/04/25 03:01:51;;;;;;;8.80;7.43;;;9.50;99.90;;;;;;5106038;28;20231;-52
2022/04/25 03:04:20;;;;;;;9.47;7.50;;;9.50;99.90;;;;;;5111652;28;20234;-52
2022/04/25 03:06:49;;;;;;;11.00;8.63;;;9.50;99.90;;;;;;5111795;28;20241;-52
2022/04/25 03:09:18;;;;;;;9.53;7.70;;;9.40;99.90;;;;;;5111601;28;20698;-52
2022/04/25 03:11:46;;;;;;;9.13;7.37;;;9.50;99.90;;;;;;5111380;28;20232;-52
2022/04/25 03:14:14;;;;;;;8.10;7.30;;;9.50;99.90;;;;;;5111512;28;20273;-52
2022/04/25 03:16:43;;;;;;;8.20;7.40;;;9.50;99.90;;;;;;5111367;28;20227;-52
2022/04/25 03:19:11;;;;;;;10.57;7.80;;;9.50;99.90;;;;;;5110649;28;20268;-52
2022/04/25 03:21:41;;;;;;;9.40;8.10;;;9.50;99.90;;;;;;5110536;28;20204;-52
2022/04/25 03:24:09;;;;;;;10.40;8.03;;;9.50;99.90;;;;;;5111592;28;20195;-52
2022/04/25 03:26:39;;;;;;;9.43;7.67;;;9.50;99.90;;;;;;5112036;28;20208;-51
2022/04/25 03:29:07;;;;;;;11.63;7.93;;;9.60;99.90;;;;;;5111106;28;20207;-51
2022/04/25 03:31:35;;;;;;;8.93;7.50;;;9.50;99.90;;;;;;5111545;28;20217;-52
2022/04/25 03:34:04;;;;;;;11.83;7.57;;;9.50;99.90;;;;;;5110702;28;20207;-52
2022/04/25 03:36:32;;;;;;;8.57;7.37;;;9.50;99.90;;;;;;5110835;28;20211;-52
2022/04/25 03:39:01;;;;;;;8.53;7.70;;;9.60;99.90;;;;;;5111413;28;20208;-52
2022/04/25 03:41:31;;;;;;;9.70;8.30;;;9.60;99.90;;;;;;5111677;28;20273;-52
2022/04/25 03:43:59;;;;;;;9.10;8.07;;;9.60;99.90;;;;;;5110659;28;20706;-52
2022/04/25 03:46:27;;;;;;;9.83;7.30;;;9.60;99.90;;;;;;5110311;28;20629;-51
2022/04/25 03:48:55;;;;;;;8.67;7.37;;;9.60;99.90;;;;;;5111597;28;20203;-51
2022/04/25 03:51:24;;;;;;;8.90;7.30;;;9.60;99.90;;;;;;5110648;28;20211;-51
2022/04/25 03:53:52;;;;;;;8.10;7.20;;;9.50;99.90;;;;;;5107496;28;20203;-51
2022/04/25 03:59:08;;;;;;;9.23;7.97;;;9.50;99.90;;;;;;5110670;28;20227;-51
2022/04/25 04:01:36;;;;;;;10.20;7.27;;;9.50;99.90;;;;;;5109918;28;20208;-51
2022/04/25 04:04:05;;;;;;;10.97;7.87;;;9.50;99.90;;;;;;5109828;28;20574;-51
2022/04/25 04:06:34;;;;;;;8.43;7.03;;;9.50;99.90;;;;;;5110956;28;20276;-51
2022/04/25 04:09:44;;;;;;;9.37;7.00;;;9.50;99.90;;;;;;5110686;28;20249;-51
2022/04/25 04:11:52;;;;;;;7.70;6.90;;;9.50;99.90;;;;;;5110616;28;20249;-51
2022/04/25 04:14:20;;;;;;;7.63;6.83;;;9.50;99.90;;;;;;5110344;28;20708;-52
2022/04/25 04:16:48;;;;;;;8.60;7.27;;;9.50;99.90;;;;;;5110044;28;20211;-52
2022/04/25 04:19:16;;;;;;;8.57;7.67;;;9.30;99.90;;;;;;5108774;28;20223;-51
2022/04/25 04:21:45;;;;;;;8.20;7.40;;;9.40;99.90;;;;;;5107775;28;20195;-52
2022/04/25 04:24:13;;;;;;;8.60;6.90;;;9.30;99.90;;;;;;5108020;28;20317;-51
2022/04/25 04:26:42;;;;;;;7.83;7.07;;;9.40;99.90;;;;;;5107741;28;20208;-52
2022/04/25 04:29:12;;;;;;;7.83;7.10;;;9.30;99.90;;;;;;5108658;28;20226;-52
2022/04/25 04:31:40;;;;;;;8.00;6.93;;;9.30;99.90;;;;;;5106721;28;20339;-51
2022/04/25 04:34:08;;;;;;;7.23;6.53;;;9.20;99.90;;;;;;5109432;28;20207;-51
2022/04/25 04:36:36;;;;;;;7.77;6.97;;;9.20;99.90;;;;;;5109796;28;20676;-52
2022/04/25 04:39:04;;;;;;;7.53;6.83;;;9.30;99.90;;;;;;5109927;28;20626;-52
2022/04/25 04:41:33;;;;;;;7.80;7.03;;;9.30;99.90;;;;;;5110280;28;20215;-52
2022/04/25 04:44:02;;;;;;;7.87;7.07;;;9.40;99.90;;;;;;5109414;28;20200;-52
2022/04/25 04:46:32;;;;;;;7.87;7.03;;;9.40;99.90;;;;;;5103511;28;20210;-51
2022/04/25 04:49:00;;;;;;;7.30;6.70;;;9.40;99.90;;;;;;5104795;28;20678;-52
2022/04/25 04:51:28;;;;;;;8.10;7.30;;;9.40;99.90;;;;;;5112772;28;20207;-51
2022/04/25 04:53:59;;;;;;;7.37;6.67;;;9.30;99.90;;;;;;5113234;28;20212;-51
2022/04/25 04:56:27;;;;;;;8.87;6.97;;;9.30;99.90;;;;;;5112300;28;20686;-52
2022/04/25 04:58:56;;;;;;;7.63;6.93;;;9.30;99.90;;;;;;5109806;28;20272;-51
2022/04/25 05:01:24;;;;;;;7.63;6.93;;;9.40;99.90;;;;;;5113204;28;20208;-52
2022/04/25 05:03:58;;;;;;;7.40;6.70;;;9.40;99.90;;;;;;5112171;28;20700;-52
2022/04/25 05:06:26;;;;;;;7.20;6.50;;;9.50;99.90;;;;;;5110696;28;20695;-52
2022/04/25 05:08:55;;;;;;;7.43;6.40;;;9.50;99.90;;;;;;5113004;28;20210;-51
2022/04/25 05:11:23;;;;;;;6.73;6.03;;;9.60;99.90;;;;;;5113851;28;20207;-51
2022/04/25 05:13:52;;;;;;;6.93;6.33;;;9.60;99.90;;;;;;5113252;28;20260;-51
2022/04/25 05:16:20;;;;;;;6.60;5.97;;;9.50;99.90;;;;;;5113170;28;20347;-52
2022/04/25 05:18:48;;;;;;;6.70;6.10;;;9.50;99.90;;;;;;5113097;28;20298;-51
2022/04/25 05:21:18;;;;;;;6.77;6.17;;;9.50;99.90;;;;;;5112434;28;20200;-51
2022/04/25 05:23:52;;;;;;;6.60;6.00;;;9.60;99.90;;;;;;5113186;28;20193;-51
2022/04/25 05:26:20;;;;;;;7.40;6.50;;;9.60;99.90;;;;;;5113154;28;20965;-52
2022/04/25 05:28:48;;;;;;;6.53;5.90;;;9.60;99.90;;;;;;5113127;28;20649;-52
2022/04/25 05:31:17;;;;;;;6.53;5.93;;;9.50;99.90;;;;;;5096705;28;20212;-51
2022/04/25 05:33:45;;;;;;;6.40;5.80;;;9.50;99.90;;;;;;5106986;28;20204;-51
2022/04/25 05:36:17;;;;;;;7.67;6.83;;;9.50;99.90;;;;;;5092741;28;20310;-51
2022/04/25 05:38:46;;;;;;;8.40;6.67;;;9.50;99.90;;;;;;5092373;28;20689;-51
2022/04/25 05:41:14;;;;;;;6.87;6.27;;;9.50;99.90;;;;;;5092307;28;20257;-51
2022/04/25 05:43:43;;;;;;;6.70;6.00;;;9.40;99.90;;;;;;5092438;28;20200;-51
2022/04/25 05:46:11;;;;;;;7.80;6.53;;;9.40;99.90;;;;;;5105980;28;20287;-52
2022/04/25 05:54:12;;;;;;;7.80;7.00;;;9.40;99.90;;;;;;5112880;28;20253;-52
2022/04/25 05:56:41;;;;;;;8.00;7.20;;;9.40;99.90;;;;;;5112834;28;20286;-51
2022/04/25 05:59:09;;;;;;;7.87;7.07;;;9.40;99.90;;;;;;5112396;28;20276;-52
2022/04/25 06:01:37;;;;;;;7.17;6.43;;;9.40;99.90;;;;;;5111614;28;20204;-52
2022/04/25 06:04:06;;;;;;;7.10;6.40;;;9.40;99.90;;;;;;5111671;28;20257;-52
2022/04/25 06:06:36;;;;;;;9.23;7.17;;;9.40;99.90;;;;;;5112707;28;20575;-51
2022/04/25 06:09:05;;;;;;;7.80;7.00;;;9.40;99.90;;;;;;5112799;28;20199;-52
2022/04/25 06:11:33;;;;;;;7.77;6.97;;;9.40;99.90;;;;;;5112642;28;20206;-52
2022/04/25 06:14:02;;;;;;;7.97;7.00;;;9.40;99.90;;;;;;5112003;27;20206;-52
2022/04/25 06:16:30;;;;;;;8.07;7.27;;;9.50;99.90;;;;;;5111852;28;20864;-52
2022/04/25 06:18:58;;;;;;;8.07;7.27;;;9.50;99.90;;;;;;5111239;28;20781;-52
2022/04/25 06:21:26;;;;;;;7.57;6.87;;;9.60;99.90;;;;;;5111483;28;20204;-52
2022/04/25 06:23:59;;;;;;;8.50;7.70;;;9.60;99.90;;;;;;5095870;28;20197;-52
2022/04/25 06:26:28;;;;;;;8.47;7.50;;;9.60;99.90;;;;;;5091540;28;20209;-52
2022/04/25 06:28:56;;;;;;;9.17;7.67;;;9.60;99.90;;;;;;5104986;27;20549;-51
2022/04/25 06:31:24;;;;;;;8.00;7.20;;;9.60;99.90;;;;;;5132586;27;20215;-52
2022/04/25 06:33:52;;;;;;;8.10;7.30;;;9.50;99.90;;;;;;5113595;27;20210;-51
2022/04/25 06:36:21;;;;;;;8.80;7.90;;;9.60;99.90;;;;;;5111572;28;20279;-51
2022/04/25 06:38:49;;;;;;;9.90;8.13;;;9.60;99.90;;;;;;5111797;27;20223;-51
2022/04/25 06:41:18;;;;;;;9.40;8.40;;;9.60;99.90;;;;;;5104378;28;20237;-52
2022/04/25 06:43:48;;;;;;;8.27;7.47;;;9.70;99.90;;;;;;5091797;28;20205;-51
2022/04/25 06:46:16;;;;;;;9.17;7.73;;;9.70;99.90;;;;;;5105439;28;20227;-51
2022/04/25 06:49:19;;;;;;;8.90;7.43;;;9.80;99.90;;;;;;5111336;28;20203;-51
2022/04/25 06:51:34;;;;;;;9.10;8.20;;;9.70;99.90;;;;;;5100612;28;20264;-51
2022/04/25 06:54:02;;;;;;;8.97;7.77;;;9.70;99.90;;;;;;5110752;28;20183;-51
2022/04/25 06:56:32;;;;;;;8.77;7.70;;;9.70;99.90;;;;;;5111165;28;20200;-51
2022/04/25 06:59:00;;;;;;;9.40;8.17;;;9.70;99.90;;;;;;5110250;28;20225;-51
2022/04/25 07:01:28;;;;;;;7.97;7.07;;;9.80;99.90;;;;;;5111765;28;20225;-51
2022/04/25 07:03:57;;;;;;;9.40;8.00;;;9.90;99.90;;;;;;5111362;28;20208;-51
2022/04/25 07:06:25;;;;;;;11.70;8.70;;;9.90;99.90;;;;;;5111547;28;20227;-51
2022/04/25 07:08:53;;;;;;;10.43;9.10;;;10.00;99.90;;;;;;5111386;28;20196;-51
2022/04/25 07:11:21;;;;;;;11.80;8.87;;;10.00;99.90;;;;;;5111167;28;20210;-51
2022/04/25 07:13:51;;;;;;;9.27;8.37;;;10.00;99.90;;;;;;5111433;28;20217;-51
2022/04/25 07:16:19;;;;;;;8.90;8.00;;;10.00;99.90;;;;;;5111271;28;20292;-52
2022/04/25 07:18:47;;;;;;;13.30;11.87;;;10.00;99.90;;;;;;5111656;28;20204;-51
2022/04/25 07:29:54;;;;;;;12.30;11.00;;;10.00;99.90;;;;;;5110819;28;20199;-51
2022/04/25 07:32:22;;;;;;;15.40;10.87;;;10.00;99.90;;;;;;5110753;28;20694;-51
2022/04/25 07:34:51;;;;;;;13.33;11.00;;;9.90;99.90;;;;;;5111213;28;20223;-51
2022/04/25 07:37:22;;;;;;;11.07;9.97;;;10.00;99.90;;;;;;5111227;28;20257;-51
2022/04/25 07:39:51;;;;;;;14.20;12.57;;;10.00;99.90;;;;;;5111398;28;20208;-51
2022/04/25 07:42:19;;;;;;;10.30;9.03;;;10.00;99.90;;;;;;5110657;28;20774;-51
2022/04/25 07:44:47;;;;;;;11.35;8.85;;;10.00;99.90;;;;;;5110525;28;20373;-51
2022/04/25 07:47:17;;;;;;;10.03;8.67;;;10.00;99.90;;;;;;5111599;28;20204;-50
2022/04/25 07:49:45;;;;;;;8.50;7.67;;;10.00;99.90;;;;;;5110924;28;20233;-51
2022/04/25 07:52:15;;;;;;;8.17;7.37;;;10.10;99.90;;;;;;5110957;28;20203;-51
2022/04/25 07:54:43;;;;;;;8.00;7.20;;;10.10;99.90;;;;;;5111142;28;20276;-51
2022/04/25 07:57:11;;;;;;;8.23;7.43;;;10.10;99.90;;;;;;5111254;28;20222;-51
2022/04/25 07:59:39;;;;;;;9.30;7.37;;;10.10;99.90;;;;;;5110860;28;20231;-51
2022/04/25 08:02:09;;;;;;;9.57;6.77;;;10.10;99.90;;;;;;5109439;28;20219;-51
2022/04/25 08:04:39;;;;;;;8.60;7.53;;;10.00;99.90;;;;;;5111341;28;20222;-51
2022/04/25 08:07:07;;;;;;;7.03;6.40;;;10.10;99.90;;;;;;5110871;28;20211;-51
2022/04/25 08:09:35;;;;;;;7.83;7.03;;;10.20;99.90;;;;;;5109811;28;20199;-52
2022/04/25 08:20:23;;;;;;;7.83;6.43;;;10.40;99.90;;;;;;5109224;28;20264;-51
2022/04/25 08:22:51;;;;;;;6.57;5.97;;;10.40;99.90;;;;;;5112608;28;20207;-51
2022/04/25 08:25:20;;;;;;;6.87;6.10;;;10.40;99.90;;;;;;5115112;28;20231;-52
2022/04/25 08:27:48;;;;;;;6.63;5.93;;;10.40;99.90;;;;;;5114655;28;20215;-51
2022/04/25 08:30:17;;;;;;;6.23;5.63;;;10.50;99.90;;;;;;5114113;28;20241;-52
2022/04/25 08:32:46;;;;;;;6.83;6.10;;;10.40;99.90;;;;;;5113479;28;20215;-51
2022/04/25 08:35:14;;;;;;;6.80;5.90;;;10.50;99.90;;;;;;5102027;28;20695;-51
2022/04/25 08:37:44;;;;;;;6.90;6.20;;;10.60;99.90;;;;;;5104554;28;20214;-52
2022/04/25 08:40:12;;;;;;;6.80;6.10;;;10.60;99.90;;;;;;5113752;27;20216;-51
2022/04/25 08:42:41;;;;;;;6.40;5.40;;;10.60;99.90;;;;;;5101121;27;20839;-51
2022/04/25 08:45:13;;;;;;;5.30;4.80;;;10.70;99.90;;;;;;5112409;27;20263;-52
2022/04/25 08:47:50;;;;;;;5.40;4.90;;;10.70;99.90;;;;;;5112462;28;20235;-52
2022/04/25 08:50:19;;;;;;;5.40;4.90;;;10.80;99.90;;;;;;5113736;28;20184;-51
2022/04/25 08:52:49;;;;;;;4.90;4.40;;;10.80;99.90;;;;;;5113279;28;20208;-51
2022/04/25 08:55:17;;;;;;;5.23;4.30;;;10.80;99.90;;;;;;5114080;28;20230;-51
2022/04/25 08:57:47;;;;;;;4.87;4.47;;;11.00;99.90;;;;;;5111940;28;20214;-51
2022/04/25 09:00:16;;;;;;;4.53;4.13;;;11.20;99.90;;;;;;5113565;28;20727;-51
2022/04/25 09:02:47;;;;;;;5.20;4.70;;;11.20;99.90;;;;;;5113882;28;20570;-51
2022/04/25 09:05:15;;;;;;;4.90;4.20;;;11.30;99.90;;;;;;5109023;28;20235;-51
2022/04/25 09:07:45;;;;;;;5.00;4.50;;;11.40;99.90;;;;;;5112263;28;20257;-51
2022/04/25 09:10:17;;;;;;;4.20;3.80;;;11.50;99.90;;;;;;5112628;28;20264;-51
2022/04/25 09:12:47;;;;;;;4.60;4.20;;;11.70;99.90;;;;;;5112489;28;20261;-51
2022/04/25 09:15:20;;;;;;;4.50;4.10;;;11.80;99.90;;;;;;5108558;28;20629;-51
2022/04/25 09:17:55;;;;;;;4.60;4.20;;;11.90;99.90;;;;;;5110771;28;20781;-52
2022/04/25 09:20:25;;;;;;;4.10;3.70;;;12.00;99.90;;;;;;5111566;28;20207;-51
2022/04/25 09:22:54;;;;;;;3.97;3.57;;;12.10;99.90;;;;;;5110528;28;20204;-51
2022/04/25 09:25:24;;;;;;;4.10;3.80;;;12.10;99.90;;;;;;5111876;28;20227;-52
2022/04/25 09:28:13;;;;;;;3.93;3.63;;;12.20;99.90;;;;;;5109541;28;20588;-51
2022/04/25 09:30:56;;;;;;;4.10;3.57;;;12.20;99.90;;;;;;5111687;28;20211;-52
2022/04/25 09:33:26;;;;;;;3.60;3.30;;;12.30;99.90;;;;;;5109611;28;20199;-51
2022/04/25 09:35:55;;;;;;;3.77;3.47;;;12.30;99.90;;;;;;5110513;28;20731;-51
2022/04/25 09:38:30;;;;;;;3.53;3.23;;;12.30;99.90;;;;;;5109837;28;20250;-52
2022/04/25 09:41:00;;;;;;;3.50;3.20;;;12.30;99.90;;;;;;5111910;28;20230;-51
2022/04/25 09:43:30;;;;;;;3.80;3.50;;;12.60;99.90;;;;;;5111687;28;20218;-51
2022/04/25 09:46:03;;;;;;;4.63;4.23;;;12.80;99.90;;;;;;5112827;28;20227;-51
2022/04/25 09:48:31;;;;;;;4.23;3.67;;;13.00;99.90;;;;;;5094613;27;20208;-52
2022/04/25 09:51:01;;;;;;;4.23;3.60;;;13.10;99.90;;;;;;5092562;28;20185;-51
2022/04/25 09:53:44;;;;;;;3.97;3.67;;;13.10;99.90;;;;;;5091915;28;20291;-52
2022/04/25 09:56:15;;;;;;;3.87;3.57;;;13.10;99.90;;;;;;5091678;28;20631;-52
2022/04/25 09:58:57;;;;;;;3.73;3.43;;;13.00;99.90;;;;;;5105687;28;20200;-52
2022/04/25 10:01:26;;;;;;;3.30;3.00;;;13.20;99.90;;;;;;5112218;28;20296;-52
2022/04/25 10:03:54;;;;;;;3.00;2.80;;;13.30;99.90;;;;;;5111616;28;20216;-51
2022/04/25 10:06:24;;;;;;;3.63;2.80;;;13.40;99.90;;;;;;5112757;28;20216;-52
2022/04/25 10:08:54;;;;;;;3.30;3.00;;;13.40;99.90;;;;;;5106598;28;20561;-51
2022/04/25 10:11:29;;;;;;;3.50;3.20;;;13.30;99.90;;;;;;5092273;28;20205;-51
2022/04/25 10:13:57;;;;;;;3.20;3.00;;;13.30;99.90;;;;;;5091013;28;20664;-52
2022/04/25 10:16:27;;;;;;;3.70;3.40;;;13.30;99.90;;;;;;5091458;28;20205;-51
2022/04/25 10:18:56;;;;;;;3.13;2.90;;;13.30;99.90;;;;;;5100357;28;20196;-51
2022/04/25 10:21:25;;;;;;;3.20;2.90;;;13.20;99.90;;;;;;5111755;28;20230;-51
2022/04/25 10:23:53;;;;;;;3.17;2.87;;;13.30;99.90;;;;;;5112162;28;20309;-50
2022/04/25 10:26:28;;;;;;;2.80;2.60;;;13.40;99.90;;;;;;5102336;28;20265;-51
2022/04/25 10:28:59;;;;;;;2.80;2.60;;;13.50;99.90;;;;;;5110916;28;20199;-50
2022/04/25 10:31:30;;;;;;;2.73;2.40;;;13.50;99.90;;;;;;5110902;28;20230;-51
2022/04/25 10:33:59;;;;;;;2.57;2.37;;;13.60;99.90;;;;;;5110183;28;20211;-52
2022/04/25 10:36:47;;;;;;;1.87;1.77;;;13.60;99.90;;;;;;5110517;28;20215;-52
2022/04/25 10:39:20;;;;;;;1.40;1.30;;;13.70;99.90;;;;;;5111480;28;20204;-51
2022/04/25 10:44:56;;;;;;;1.70;1.60;;;14.10;99.90;;;;;;5109530;28;20215;-51
2022/04/25 10:47:25;;;;;;;3.40;2.93;;;14.20;99.90;;;;;;5088720;28;20204;-51
2022/04/25 10:50:08;;;;;;;2.30;2.13;;;14.30;99.90;;;;;;5111119;28;20227;-51
2022/04/25 10:55:42;;;;;;;1.73;1.63;;;14.30;99.90;;;;;;5110733;28;20235;-51
2022/04/25 10:58:17;;;;;;;1.97;1.87;;;14.10;99.90;;;;;;5110744;28;20757;-51
2022/04/25 11:00:50;;;;;;;2.20;2.00;;;13.90;99.90;;;;;;5110786;28;20214;-51
2022/04/25 11:03:21;;;;;;;2.10;1.97;;;13.90;99.90;;;;;;5109747;28;20213;-51
2022/04/25 11:05:51;;;;;;;2.00;1.90;;;14.20;99.90;;;;;;5090429;28;20239;-51
2022/04/25 11:08:33;;;;;;;2.23;2.10;;;14.10;99.90;;;;;;5110665;27;20737;-51
2022/04/25 11:11:04;;;;;;;2.10;2.00;;;14.10;99.90;;;;;;5111705;28;20230;-50
2022/04/25 11:13:36;;;;;;;2.33;2.17;;;14.10;99.90;;;;;;5110300;28;20690;-51
2022/04/25 11:16:18;;;;;;;2.43;2.23;;;14.10;99.90;;;;;;5091494;28;20224;-51
2022/04/25 11:19:08;;;;;;;2.67;2.47;;;14.30;99.90;;;;;;5109788;28;20207;-51
2022/04/25 11:21:37;;;;;;;2.50;2.30;;;14.30;99.90;;;;;;5110675;28;20246;-51
2022/04/25 11:24:29;;;;;;;3.03;2.23;;;14.40;99.90;;;;;;5110505;28;20203;-51
2022/04/25 11:26:59;;;;;;;2.80;2.17;;;14.50;99.90;;;;;;5110651;28;20203;-51
2022/04/25 11:29:29;;;;;;;2.87;2.67;;;14.30;99.90;;;;;;5111457;28;20200;-51
2022/04/25 11:32:27;;;;;;;2.80;2.60;;;14.40;99.90;;;;;;5110310;28;20207;-51
2022/04/25 11:35:00;;;;;;;2.80;2.60;;;14.30;99.90;;;;;;5110823;28;20292;-52
2022/04/25 11:37:32;;;;;;;2.40;2.20;;;14.30;99.90;;;;;;5110276;28;20196;-50
2022/04/25 11:40:04;;;;;;;2.80;2.60;;;14.30;99.90;;;;;;5111322;28;20276;-52
2022/04/25 11:42:34;;;;;;;3.10;2.80;;;14.40;99.90;;;;;;5110771;28;20581;-50
2022/04/25 11:45:05;;;;;;;3.63;2.90;;;14.20;99.90;;;;;;5110420;28;20227;-51
2022/04/25 11:47:33;;;;;;;3.23;2.90;;;14.10;99.90;;;;;;5110192;28;20199;-51
2022/04/25 11:50:03;;;;;;;3.40;3.10;;;14.10;99.90;;;;;;5111171;28;20207;-51
2022/04/25 11:52:32;;;;;;;3.33;3.03;;;14.10;99.90;;;;;;5110145;28;20192;-52
2022/04/25 11:55:00;;;;;;;3.47;3.10;;;14.20;99.90;;;;;;5110755;28;20276;-52
2022/04/25 11:57:28;;;;;;;3.90;3.60;;;14.30;99.90;;;;;;5113027;28;20206;-51
2022/04/25 12:00:14;;;;;;;4.00;3.70;;;14.50;99.90;;;;;;5115421;28;20252;-52
2022/04/25 12:02:42;;;;;;;3.63;3.33;;;14.50;99.90;;;;;;5114750;28;20227;-51
2022/04/25 12:05:12;;;;;;;3.47;3.17;;;14.60;99.90;;;;;;5110808;28;20219;-51
2022/04/25 12:15:34;;;;;;;3.50;3.20;;;14.60;99.90;;;;;;5112721;28;20612;-51
2022/04/25 12:16:08;;;;;;;3.60;3.30;;;14.70;99.90;;;;;;5110399;28;20286;-52
2022/04/25 12:18:48;;;;;;;3.60;3.30;;;14.80;99.90;;;;;;5113765;28;20691;-51
2022/04/25 12:21:18;;;;;;;3.70;3.40;;;14.90;99.90;;;;;;5111928;28;20204;-51
2022/04/25 12:23:50;;;;;;;3.60;3.30;;;14.90;99.90;;;;;;5111272;28;20196;-52
2022/04/25 12:26:20;;;;;;;4.00;3.60;;;15.00;99.90;;;;;;5112216;27;20280;-52
2022/04/25 12:28:55;;;;;;;4.18;3.78;;;15.10;99.90;;;;;;5112640;27;20642;-51
2022/04/25 12:31:25;;;;;;;3.85;3.55;;;15.00;99.90;;;;;;5111826;28;20218;-52
2022/04/25 12:33:54;;;;;;;3.70;3.30;;;15.10;99.90;;;;;;5112040;28;20790;-51
2022/04/25 12:36:24;;;;;;;4.28;3.88;;;15.20;99.90;;;;;;5112543;28;20231;-52
2022/04/25 12:38:57;;;;;;;3.85;3.53;;;15.40;99.90;;;;;;5134201;27;20601;-51
2022/04/25 12:41:27;;;;;;;3.78;3.45;;;15.50;99.90;;;;;;5096167;28;20572;-51
2022/04/25 12:43:57;;;;;;;3.67;3.38;;;15.70;99.90;;;;;;5095719;28;20293;-51
2022/04/25 12:46:40;;;;;;;3.42;3.15;;;15.70;99.90;;;;;;5099437;28;20215;-51
2022/04/25 12:49:12;;;;;;;3.40;3.10;;;15.70;99.90;;;;;;5108432;28;20280;-51
2022/04/25 12:51:46;;;;;;;3.20;2.90;;;15.70;99.90;;;;;;5111260;28;20210;-51
2022/04/25 12:54:23;;;;;;;3.35;2.97;;;15.70;99.90;;;;;;5093028;28;20211;-51
2022/04/25 12:56:55;;;;;;;3.20;2.90;;;15.70;99.90;;;;;;5106894;28;20260;-51
2022/04/25 12:59:28;;;;;;;3.63;2.92;;;15.60;99.90;;;;;;5114010;28;20213;-51
2022/04/25 13:02:07;;;;;;;3.88;3.13;;;15.60;99.90;;;;;;5101727;28;20227;-51
2022/04/25 13:04:54;;;;;;;3.03;2.83;;;15.70;99.90;;;;;;5112817;28;20298;-51
2022/04/25 13:07:23;;;;;;;4.82;3.55;;;15.70;99.90;;;;;;5109755;28;20203;-51
2022/04/25 13:09:56;;;;;;;3.00;2.70;;;15.70;99.90;;;;;;5112635;28;20550;-51
2022/04/25 13:12:25;;;;;;;3.20;2.90;;;15.70;99.90;;;;;;5112846;28;20636;-51
2022/04/25 13:14:53;;;;;;;2.88;2.67;;;15.80;99.90;;;;;;5113168;28;20224;-51
2022/04/25 13:17:23;;;;;;;4.10;3.50;;;15.80;99.90;;;;;;5112894;28;20248;-51
2022/04/25 13:19:51;;;;;;;3.00;2.80;;;15.80;99.90;;;;;;5113409;27;20207;-51
2022/04/25 13:22:19;;;;;;;2.97;2.78;;;15.70;99.90;;;;;;5112527;28;20720;-51
2022/04/25 13:24:49;;;;;;;3.00;2.80;;;15.60;99.90;;;;;;5111634;28;20616;-51
2022/04/25 13:27:17;;;;;;;3.25;2.75;;;15.60;99.90;;;;;;5103165;28;20200;-51
2022/04/25 13:29:45;;;;;;;2.65;2.45;;;15.60;99.90;;;;;;5100685;28;20729;-51
2022/04/25 13:32:13;;;;;;;2.83;2.63;;;15.60;99.90;;;;;;5109378;28;20207;-51
2022/04/25 13:34:43;;;;;;;2.50;2.30;;;15.60;99.90;;;;;;5110423;28;20223;-51
2022/04/25 13:37:13;;;;;;;3.15;2.40;;;15.60;99.90;;;;;;5110163;28;20242;-51
2022/04/25 13:39:41;;;;;;;3.40;3.10;;;15.60;99.90;;;;;;5107999;28;20256;-51
2022/04/25 13:42:09;;;;;;;3.28;3.08;;;15.70;99.90;;;;;;5109864;28;20207;-51
2022/04/25 13:44:38;;;;;;;2.80;2.60;;;15.70;99.90;;;;;;5111393;28;20219;-50